createdAt,value
2022-09-18T00:01:46.586Z,48.41
2022-09-18T00:08:32.197Z,48.22
2022-09-18T00:15:17.642Z,48.83
2022-09-18T00:22:05.588Z,48.67
2022-09-18T00:28:51.158Z,48.83
2022-09-18T00:35:36.585Z,48.63
2022-09-18T00:42:24.832Z,48.45
2022-09-18T00:49:17.129Z,48.79
2022-09-18T00:56:04.564Z,49.05
2022-09-18T01:02:53.367Z,48.75
2022-09-18T01:09:48.683Z,49.04
2022-09-18T01:16:46.079Z,49.20
2022-09-18T01:24:09.567Z,48.01
2022-09-18T01:31:07.978Z,49.00
2022-09-18T01:37:58.840Z,49.35
2022-09-18T01:44:47.944Z,49.65
2022-09-18T01:51:42.138Z,49.70
2022-09-18T01:58:31.278Z,50.11
2022-09-18T02:05:24.606Z,50.11
2022-09-18T02:12:18.157Z,50.13
2022-09-18T02:19:12.451Z,50.42
2022-09-18T02:26:04.397Z,50.24
2022-09-18T02:32:57.300Z,50.21
2022-09-18T02:39:56.014Z,50.19
2022-09-18T03:00:36.361Z,51.25
2022-09-18T03:07:29.199Z,51.56
2022-09-18T03:14:17.884Z,52.06
2022-09-18T03:21:07.217Z,52.70
2022-09-18T03:27:56.295Z,52.64
2022-09-18T03:34:50.108Z,53.22
2022-09-18T03:41:38.238Z,53.75
2022-09-18T03:48:25.820Z,53.69
2022-09-18T03:55:12.754Z,54.31
2022-09-18T04:02:16.246Z,54.43
2022-09-18T04:09:24.513Z,54.43
2022-09-18T04:16:12.474Z,54.56
2022-09-18T04:23:00.725Z,55.18
2022-09-18T04:29:46.192Z,55.13
2022-09-18T04:36:33.857Z,55.26
2022-09-18T04:43:21.864Z,55.28
2022-09-18T04:50:08.851Z,55.55
2022-09-18T04:56:54.421Z,55.58
2022-09-18T05:03:42.833Z,55.71
2022-09-18T05:10:35.320Z,55.52
2022-09-18T05:17:22.681Z,55.86
2022-09-18T05:24:20.661Z,56.03
2022-09-18T05:31:08.599Z,56.01
2022-09-18T05:38:02.004Z,56.29
2022-09-18T05:44:51.604Z,56.46
2022-09-18T05:51:44.698Z,56.36
2022-09-18T05:58:31.166Z,56.40
2022-09-18T06:05:19.269Z,56.50
2022-09-18T06:12:05.313Z,56.47
2022-09-18T06:18:53.681Z,56.18
2022-09-18T06:25:42.992Z,56.27
2022-09-18T06:32:28.583Z,56.24
2022-09-18T06:39:14.541Z,55.74
2022-09-18T06:46:04.484Z,55.99
2022-09-18T06:52:56.464Z,55.48
2022-09-18T06:59:42.205Z,55.31
2022-09-18T07:06:30.589Z,55.21
2022-09-18T07:13:16.240Z,54.53
2022-09-18T07:20:04.924Z,54.14
2022-09-18T07:27:02.527Z,54.22
2022-09-18T07:33:47.952Z,53.84
2022-09-18T07:40:37.725Z,53.41
2022-09-18T07:47:28.970Z,53.15
2022-09-18T07:54:18.837Z,53.40
2022-09-18T08:01:19.285Z,52.80
2022-09-18T08:08:17.056Z,52.83
2022-09-18T08:15:19.420Z,52.58
2022-09-18T08:22:27.813Z,52.29
2022-09-18T08:29:19.323Z,52.19
2022-09-18T08:36:21.236Z,52.47
2022-09-18T08:43:30.504Z,51.94
2022-09-18T08:50:24.389Z,52.32
2022-09-18T08:57:22.662Z,52.10
2022-09-18T09:04:28.539Z,51.92
2022-09-18T09:11:29.237Z,51.91
2022-09-18T09:18:21.201Z,51.72
2022-09-18T09:25:22.707Z,51.28
2022-09-18T09:32:37.672Z,50.97
2022-09-18T09:39:43.149Z,51.07
2022-09-18T09:46:57.895Z,51.08
2022-09-18T09:53:46.473Z,50.73
2022-09-18T10:00:38.320Z,50.59
2022-09-18T10:07:34.404Z,50.10
2022-09-18T10:14:29.385Z,49.75
2022-09-18T10:21:19.593Z,49.88
2022-09-18T10:28:06.233Z,49.99
2022-09-18T10:34:54.359Z,50.13
2022-09-18T10:41:43.204Z,49.40
2022-09-18T10:48:30.507Z,49.27
2022-09-18T10:55:23.493Z,48.57
2022-09-18T11:02:21.826Z,48.63
2022-09-18T11:09:13.579Z,48.78
2022-09-18T11:16:07.532Z,48.35
2022-09-18T11:22:53.749Z,48.60
2022-09-18T11:29:51.458Z,48.37
2022-09-18T11:36:41.072Z,48.43
2022-09-18T11:43:29.868Z,48.06
2022-09-18T11:50:21.867Z,47.85
2022-09-18T11:57:20.676Z,47.94
2022-09-18T12:04:16.301Z,47.75
2022-09-18T12:11:15.242Z,47.92
2022-09-18T12:18:11.277Z,48.24
2022-09-18T12:24:58.948Z,47.84
2022-09-18T12:32:23.232Z,47.24
2022-09-18T12:39:39.272Z,47.50
2022-09-18T12:46:50.495Z,47.36
2022-09-18T12:53:56.441Z,46.89
2022-09-18T13:00:49.497Z,46.93
2022-09-18T13:07:40.169Z,46.92
2022-09-18T13:14:31.760Z,46.55
2022-09-18T13:21:26.987Z,46.40
2022-09-18T13:28:18.095Z,46.49
2022-09-18T13:35:07.001Z,46.25
2022-09-18T13:41:58.826Z,46.52
2022-09-18T13:48:55.883Z,46.36
2022-09-18T13:55:53.069Z,46.47
2022-09-18T14:02:42.700Z,46.66
2022-09-18T14:09:50.316Z,46.54
2022-09-18T14:16:43.702Z,46.36
2022-09-18T14:24:41.039Z,46.17
2022-09-18T14:31:32.147Z,45.59
2022-09-18T14:38:29.623Z,45.49
2022-09-18T14:45:29.948Z,45.58
2022-09-18T14:52:24.193Z,45.61
2022-09-18T14:59:15.600Z,45.48
2022-09-18T15:06:15.451Z,45.27
2022-09-18T15:13:02.030Z,45.17
2022-09-18T15:20:02.376Z,45.20
2022-09-18T15:26:56.125Z,44.98
2022-09-18T15:33:51.758Z,45.32
2022-09-18T15:40:40.271Z,45.47
2022-09-18T15:47:38.472Z,45.35
2022-09-18T15:54:29.660Z,44.97
2022-09-18T16:01:39.929Z,44.34
2022-09-18T16:08:32.504Z,44.02
2022-09-18T16:15:25.596Z,44.03
2022-09-18T16:22:14.068Z,44.00
2022-09-18T16:29:06.320Z,43.81
2022-09-18T16:35:59.117Z,43.88
2022-09-18T16:42:44.453Z,43.92
2022-09-18T16:49:36.991Z,44.20
2022-09-18T16:56:29.803Z,44.68
2022-09-18T17:03:16.136Z,44.25
2022-09-18T17:10:04.344Z,44.64
2022-09-18T17:16:49.914Z,44.60
2022-09-18T17:23:36.697Z,44.81
2022-09-18T17:30:25.449Z,44.93
2022-09-18T17:37:10.895Z,45.25
2022-09-18T17:43:56.991Z,45.73
2022-09-18T17:50:45.103Z,45.95
2022-09-18T17:57:31.179Z,46.35
2022-09-18T18:04:17.933Z,46.40
2022-09-18T18:11:11.253Z,47.14
2022-09-18T18:17:56.771Z,46.75
2022-09-18T18:24:42.320Z,46.92
2022-09-18T18:31:31.628Z,46.99
2022-09-18T18:38:17.423Z,47.49
2022-09-18T18:52:04.502Z,47.96
2022-09-18T18:58:50.700Z,48.23
2022-09-18T19:05:36.556Z,48.29
2022-09-18T19:12:26.665Z,48.96
2022-09-18T19:19:12.166Z,49.07
2022-09-18T19:26:00.111Z,48.92
2022-09-18T19:32:49.104Z,48.55
2022-09-18T19:39:34.526Z,48.83
2022-09-18T19:46:30.034Z,48.99
2022-09-18T19:53:18.048Z,49.07
2022-09-18T20:00:03.368Z,49.29
2022-09-18T20:06:57.436Z,49.56
2022-09-18T20:13:45.416Z,49.85
2022-09-18T20:20:31.688Z,49.69
2022-09-18T20:27:17.162Z,49.95
2022-09-18T20:34:06.060Z,50.00
2022-09-18T20:41:06.660Z,50.08
2022-09-18T20:47:52.436Z,49.86
2022-09-18T20:54:41.635Z,50.04
2022-09-18T21:01:30.400Z,50.26
2022-09-18T21:08:16.210Z,50.00
2022-09-18T21:15:05.357Z,49.95
2022-09-18T21:21:51.786Z,50.32
2022-09-18T21:28:37.129Z,50.60
2022-09-18T21:35:25.666Z,50.57
2022-09-18T21:42:12.321Z,50.90
2022-09-18T21:48:57.652Z,50.81
2022-09-18T21:55:45.580Z,51.32
2022-09-18T22:02:30.918Z,50.75
2022-09-18T22:09:18.948Z,50.64
2022-09-18T22:16:07.622Z,50.18
2022-09-18T22:22:52.980Z,50.31
2022-09-18T22:29:41.171Z,50.83
2022-09-18T22:36:29.923Z,51.38
2022-09-18T22:43:15.624Z,51.52
2022-09-18T22:50:00.978Z,51.55
2022-09-18T22:56:52.312Z,51.75
2022-09-18T23:03:38.203Z,51.63
2022-09-18T23:10:23.650Z,51.42
2022-09-18T23:17:11.755Z,51.92
2022-09-18T23:23:58.663Z,51.79
2022-09-18T23:30:43.830Z,51.04
2022-09-18T23:37:32.076Z,51.96
2022-09-18T23:44:20.284Z,52.43
2022-09-18T23:51:08.289Z,52.69
2022-09-18T23:57:56.307Z,52.93
